createdAt,value
2019-01-25T00:02:14.210Z,27.67
2019-01-25T00:04:43.056Z,27.00
2019-01-25T00:07:11.893Z,27.10
2019-01-25T00:09:40.708Z,26.33
2019-01-25T00:12:09.511Z,29.07
2019-01-25T00:14:38.348Z,27.97
2019-01-25T00:17:07.182Z,28.27
2019-01-25T00:19:36.057Z,28.53
2019-01-25T00:22:04.897Z,27.70
2019-01-25T00:24:33.709Z,27.83
2019-01-25T00:27:02.529Z,28.77
2019-01-25T00:29:31.477Z,29.13
2019-01-25T00:32:00.281Z,28.33
2019-01-25T00:34:29.104Z,26.77
2019-01-25T00:36:57.921Z,29.60
2019-01-25T00:39:26.725Z,29.27
2019-01-25T00:41:55.532Z,29.13
2019-01-25T00:44:24.361Z,31.17
2019-01-25T00:46:53.195Z,27.87
2019-01-25T00:49:21.991Z,28.30
2019-01-25T00:51:51.771Z,28.20
2019-01-25T00:54:20.783Z,26.73
2019-01-25T00:56:49.599Z,29.43
2019-01-25T00:59:18.408Z,26.00
2019-01-25T01:01:47.323Z,28.50
2019-01-25T01:04:16.112Z,30.13
2019-01-25T01:06:44.919Z,27.87
2019-01-25T01:09:13.836Z,29.73
2019-01-25T01:11:42.649Z,31.17
2019-01-25T01:14:11.454Z,28.87
2019-01-25T01:16:40.323Z,30.33
2019-01-25T01:19:09.234Z,29.53
2019-01-25T01:21:38.036Z,26.93
2019-01-25T01:24:06.875Z,30.37
2019-01-25T01:26:35.683Z,32.03
2019-01-25T01:29:04.494Z,31.40
2019-01-25T01:31:33.343Z,30.53
2019-01-25T01:34:02.152Z,31.00
2019-01-25T01:36:30.966Z,31.40
2019-01-25T01:38:59.791Z,31.43
2019-01-25T01:41:28.593Z,29.27
2019-01-25T01:43:57.392Z,31.20
2019-01-25T01:46:26.309Z,28.97
2019-01-25T01:48:55.115Z,26.70
2019-01-25T01:51:23.955Z,26.47
2019-01-25T01:53:52.797Z,26.93
2019-01-25T01:56:21.682Z,28.57
2019-01-25T01:58:50.759Z,26.17
2019-01-25T02:01:19.603Z,25.77
2019-01-25T02:03:48.407Z,27.40
2019-01-25T02:06:17.228Z,25.60
2019-01-25T02:08:46.065Z,26.77
2019-01-25T02:11:14.882Z,25.27
2019-01-25T02:13:43.688Z,25.07
2019-01-25T02:16:13.604Z,27.30
2019-01-25T02:18:42.409Z,28.00
2019-01-25T02:21:12.076Z,26.43
2019-01-25T02:23:40.918Z,27.27
2019-01-25T02:26:09.799Z,29.07
2019-01-25T02:28:38.604Z,28.57
2019-01-25T02:31:07.468Z,29.20
2019-01-25T02:33:36.270Z,28.50
2019-01-25T02:36:05.085Z,27.73
2019-01-25T02:38:33.922Z,26.13
2019-01-25T02:41:02.745Z,28.13
2019-01-25T02:43:31.544Z,26.60
2019-01-25T02:46:00.382Z,25.63
2019-01-25T02:48:29.180Z,28.07
2019-01-25T02:50:58.960Z,27.33
2019-01-25T02:53:27.801Z,26.73
2019-01-25T02:55:56.603Z,29.07
2019-01-25T02:58:25.412Z,28.83
2019-01-25T03:00:54.259Z,27.03
2019-01-25T03:03:23.127Z,27.33
2019-01-25T03:05:52.913Z,27.03
2019-01-25T03:08:22.853Z,27.13
2019-01-25T03:10:51.643Z,26.50
2019-01-25T03:13:20.445Z,27.27
2019-01-25T03:15:49.260Z,28.23
2019-01-25T03:18:18.067Z,29.27
2019-01-25T03:20:46.901Z,28.70
2019-01-25T03:23:15.913Z,28.17
2019-01-25T03:25:44.721Z,28.83
2019-01-25T03:28:13.527Z,28.00
2019-01-25T03:30:42.360Z,30.47
2019-01-25T03:33:11.229Z,28.73
2019-01-25T03:35:40.044Z,28.30
2019-01-25T03:38:08.893Z,28.30
2019-01-25T03:40:37.700Z,27.70
2019-01-25T03:43:06.513Z,33.80
2019-01-25T03:45:35.416Z,32.70
2019-01-25T03:48:04.227Z,32.10
2019-01-25T03:50:33.032Z,35.80
2019-01-25T03:53:01.919Z,35.37
2019-01-25T03:55:30.727Z,33.07
2019-01-25T03:57:59.532Z,33.60
2019-01-25T04:00:28.928Z,32.50
2019-01-25T04:02:57.737Z,32.60
2019-01-25T04:05:26.540Z,31.60
2019-01-25T04:07:55.370Z,30.60
2019-01-25T04:10:25.138Z,30.93
2019-01-25T04:12:53.965Z,30.40
2019-01-25T04:15:24.579Z,31.30
2019-01-25T04:17:53.375Z,30.43
2019-01-25T04:20:22.844Z,29.70
2019-01-25T04:22:51.661Z,30.47
2019-01-25T04:25:21.138Z,30.17
2019-01-25T04:27:50.012Z,30.50
2019-01-25T04:30:22.863Z,31.00
2019-01-25T04:32:51.687Z,28.93
2019-01-25T04:35:20.577Z,31.33
2019-01-25T04:37:49.415Z,29.90
2019-01-25T04:40:18.396Z,30.57
2019-01-25T04:42:47.202Z,31.03
2019-01-25T04:45:19.840Z,31.67
2019-01-25T04:47:48.648Z,31.50
2019-01-25T04:50:19.382Z,30.43
2019-01-25T04:52:48.399Z,31.40
2019-01-25T04:55:20.898Z,30.87
2019-01-25T04:57:49.901Z,33.53
2019-01-25T05:00:19.912Z,30.27
2019-01-25T05:02:52.596Z,30.80
2019-01-25T05:05:21.574Z,31.27
2019-01-25T05:07:50.367Z,30.90
2019-01-25T05:10:19.191Z,30.73
2019-01-25T05:12:53.117Z,31.33
2019-01-25T05:15:22.049Z,31.60
2019-01-25T05:17:51.526Z,31.17
2019-01-25T05:20:20.369Z,31.77
2019-01-25T05:22:51.575Z,32.10
2019-01-25T05:25:24.004Z,30.47
2019-01-25T05:27:52.822Z,29.20
2019-01-25T05:30:21.624Z,32.53
2019-01-25T05:32:50.450Z,30.13
2019-01-25T05:35:19.253Z,29.87
2019-01-25T05:37:48.070Z,30.87
2019-01-25T05:40:18.533Z,31.20
2019-01-25T05:42:47.343Z,30.30
2019-01-25T05:45:16.324Z,30.73
2019-01-25T05:47:45.170Z,29.43
2019-01-25T05:50:14.542Z,30.87
2019-01-25T05:52:43.339Z,29.80
2019-01-25T05:55:16.568Z,30.93
2019-01-25T05:57:45.386Z,31.73
2019-01-25T06:00:15.831Z,30.43
2019-01-25T06:02:44.670Z,31.13
2019-01-25T06:05:13.470Z,30.77
2019-01-25T06:07:42.275Z,32.20
2019-01-25T06:10:11.589Z,32.47
2019-01-25T06:12:40.398Z,30.27
2019-01-25T06:15:10.832Z,31.43
2019-01-25T06:17:39.649Z,31.13
2019-01-25T06:20:09.229Z,34.57
2019-01-25T06:22:38.042Z,33.17
2019-01-25T06:25:07.357Z,33.43
2019-01-25T06:27:37.135Z,31.20
2019-01-25T06:30:07.636Z,32.87
2019-01-25T06:32:36.613Z,32.37
2019-01-25T06:35:06.401Z,31.43
2019-01-25T06:37:35.196Z,31.63
2019-01-25T06:40:05.715Z,32.30
2019-01-25T06:42:34.513Z,32.03
2019-01-25T06:45:04.506Z,31.27
2019-01-25T06:47:33.340Z,31.27
2019-01-25T06:50:02.156Z,32.53
2019-01-25T06:52:31.018Z,32.17
2019-01-25T06:55:00.004Z,31.07
2019-01-25T06:57:30.465Z,31.80
2019-01-25T06:59:59.279Z,33.27
2019-01-25T07:02:28.575Z,33.23
2019-01-25T07:04:57.387Z,30.87
2019-01-25T07:07:27.834Z,33.17
2019-01-25T07:09:56.836Z,33.83
2019-01-25T07:12:25.650Z,30.80
2019-01-25T07:14:54.497Z,32.47
2019-01-25T07:17:23.363Z,31.97
2019-01-25T07:19:52.170Z,34.03
2019-01-25T07:22:20.989Z,33.33
2019-01-25T07:24:56.908Z,32.13
2019-01-25T07:27:20.307Z,31.07
2019-01-25T07:29:49.120Z,32.37
2019-01-25T07:32:18.118Z,30.50
2019-01-25T07:34:46.946Z,31.93
2019-01-25T07:37:15.813Z,32.53
2019-01-25T07:39:44.705Z,34.27
2019-01-25T07:42:13.632Z,31.57
2019-01-25T07:44:42.536Z,32.83
2019-01-25T07:47:11.367Z,32.50
2019-01-25T07:49:40.306Z,31.77
2019-01-25T07:52:09.215Z,32.53
2019-01-25T07:54:38.076Z,32.83
2019-01-25T07:57:06.933Z,32.13
2019-01-25T07:59:35.798Z,30.67
2019-01-25T08:02:04.606Z,31.03
2019-01-25T08:04:33.460Z,33.37
2019-01-25T08:07:02.282Z,31.33
2019-01-25T08:09:31.228Z,30.60
2019-01-25T08:12:07.020Z,31.87
2019-01-25T08:14:30.639Z,32.83
2019-01-25T08:16:59.493Z,31.90
2019-01-25T08:19:28.334Z,31.13
2019-01-25T08:21:57.140Z,32.67
2019-01-25T08:24:26.002Z,32.93
2019-01-25T08:26:54.887Z,32.03
2019-01-25T08:29:27.847Z,32.73
2019-01-25T08:31:54.248Z,35.57
2019-01-25T08:34:23.130Z,32.10
2019-01-25T08:36:52.018Z,32.80
2019-01-25T08:39:21.020Z,34.13
2019-01-25T08:41:49.861Z,33.73
2019-01-25T08:44:18.651Z,31.67
2019-01-25T08:46:47.535Z,32.27
2019-01-25T08:49:16.390Z,33.43
2019-01-25T08:51:45.321Z,33.33
2019-01-25T08:54:16.133Z,33.93
2019-01-25T08:56:45.080Z,34.23
2019-01-25T08:59:13.906Z,34.83
2019-01-25T09:01:42.851Z,34.50
2019-01-25T09:04:12.653Z,35.53
2019-01-25T09:06:41.467Z,35.23
2019-01-25T09:09:10.343Z,33.47
2019-01-25T09:11:39.217Z,33.57
2019-01-25T09:14:08.035Z,32.63
2019-01-25T09:16:36.833Z,33.87
2019-01-25T09:19:05.691Z,34.27
2019-01-25T09:21:34.562Z,35.27
2019-01-25T09:24:03.373Z,34.30
2019-01-25T09:26:32.214Z,35.43
2019-01-25T09:29:01.091Z,33.20
2019-01-25T09:31:29.895Z,33.80
2019-01-25T09:33:58.803Z,31.60
2019-01-25T09:36:27.669Z,31.37
2019-01-25T09:38:56.647Z,31.77
2019-01-25T09:41:25.561Z,32.83
2019-01-25T09:43:54.371Z,33.63
2019-01-25T09:46:23.173Z,31.93
2019-01-25T09:48:51.997Z,33.17
2019-01-25T09:51:20.794Z,33.00
2019-01-25T09:53:49.717Z,32.43
2019-01-25T09:56:20.252Z,33.23
2019-01-25T09:58:49.152Z,33.17
2019-01-25T10:01:18.013Z,35.73
2019-01-25T10:03:46.818Z,32.70
2019-01-25T10:06:15.656Z,33.23
2019-01-25T10:08:44.489Z,32.77
2019-01-25T10:11:13.368Z,33.47
2019-01-25T10:13:42.168Z,34.50
2019-01-25T10:16:11.005Z,33.33
2019-01-25T10:18:39.854Z,35.20
2019-01-25T10:21:08.742Z,33.10
2019-01-25T10:23:39.154Z,33.20
2019-01-25T10:26:08.353Z,32.20
2019-01-25T10:28:37.158Z,32.73
2019-01-25T10:31:06.011Z,31.83
2019-01-25T10:33:34.885Z,32.60
2019-01-25T10:36:03.680Z,32.20
2019-01-25T10:38:32.536Z,34.00
2019-01-25T10:41:01.358Z,31.43
2019-01-25T10:43:30.164Z,31.07
2019-01-25T10:45:59.000Z,33.13
2019-01-25T10:48:27.816Z,31.80
2019-01-25T10:50:56.617Z,30.20
2019-01-25T10:53:25.457Z,32.90
2019-01-25T10:55:54.257Z,33.97
2019-01-25T10:58:23.499Z,32.30
2019-01-25T11:00:52.367Z,32.33
2019-01-25T11:03:22.144Z,31.90
2019-01-25T11:05:50.952Z,32.40
2019-01-25T11:08:19.788Z,31.93
2019-01-25T11:10:48.574Z,31.67
2019-01-25T11:13:17.459Z,31.57
2019-01-25T11:15:46.277Z,31.33
2019-01-25T11:18:15.082Z,31.47
2019-01-25T11:20:43.885Z,31.67
2019-01-25T11:23:12.728Z,26.60
2019-01-25T11:25:41.802Z,27.70
2019-01-25T11:28:10.597Z,29.23
2019-01-25T11:30:39.433Z,27.07
2019-01-25T11:33:08.241Z,27.63
2019-01-25T11:35:37.050Z,27.37
2019-01-25T11:38:05.886Z,29.17
2019-01-25T11:40:36.057Z,27.37
2019-01-25T11:43:08.818Z,26.50
2019-01-25T11:45:37.212Z,24.87
2019-01-25T11:48:07.791Z,23.63
2019-01-25T11:50:36.595Z,25.23
2019-01-25T11:53:05.431Z,25.83
2019-01-25T11:55:34.234Z,26.20
2019-01-25T11:58:03.109Z,26.00
2019-01-25T12:00:32.844Z,25.27
2019-01-25T12:03:01.913Z,25.63
2019-01-25T12:05:30.778Z,25.97
2019-01-25T12:07:59.632Z,25.73
2019-01-25T12:10:30.586Z,26.03
2019-01-25T12:12:59.386Z,26.10
2019-01-25T12:15:28.220Z,26.13
2019-01-25T12:17:57.085Z,25.40
2019-01-25T12:20:30.516Z,25.67
2019-01-25T12:22:59.386Z,24.03
2019-01-25T12:25:28.204Z,22.83
2019-01-25T12:27:57.318Z,20.77
2019-01-25T12:30:27.810Z,24.50
2019-01-25T12:32:56.625Z,23.50
2019-01-25T12:35:26.319Z,23.53
2019-01-25T12:37:55.215Z,22.30
2019-01-25T12:40:24.021Z,24.20
2019-01-25T12:42:52.998Z,21.27
2019-01-25T12:45:23.509Z,20.53
2019-01-25T12:47:52.408Z,18.13
2019-01-25T12:50:28.579Z,18.60
2019-01-25T12:52:57.654Z,18.47
2019-01-25T12:55:26.456Z,18.63
2019-01-25T12:57:55.287Z,14.63
2019-01-25T13:00:24.097Z,15.17
2019-01-25T13:02:53.147Z,19.43
2019-01-25T13:05:22.059Z,18.00
2019-01-25T13:07:50.867Z,18.77
2019-01-25T13:10:21.016Z,15.70
2019-01-25T13:12:49.862Z,18.13
2019-01-25T13:15:18.684Z,17.67
2019-01-25T13:17:47.494Z,18.43
2019-01-25T13:20:18.028Z,18.27
2019-01-25T13:22:46.899Z,20.07
2019-01-25T13:25:15.808Z,18.77
2019-01-25T13:27:44.777Z,19.40
2019-01-25T13:30:19.425Z,19.10
2019-01-25T13:32:48.493Z,19.10
2019-01-25T13:35:17.625Z,17.27
2019-01-25T13:37:46.580Z,17.73
2019-01-25T13:40:19.512Z,15.17
2019-01-25T13:42:48.486Z,18.83
2019-01-25T13:45:18.163Z,18.23
2019-01-25T13:47:47.388Z,18.30
2019-01-25T13:50:17.359Z,17.47
2019-01-25T13:52:46.160Z,17.83
2019-01-25T13:55:15.374Z,18.10
2019-01-25T13:57:44.192Z,17.03
2019-01-25T14:00:14.625Z,15.87
2019-01-25T14:02:43.585Z,15.90
2019-01-25T14:05:13.893Z,16.47
2019-01-25T14:07:42.693Z,16.27
2019-01-25T14:10:16.041Z,17.13
2019-01-25T14:12:44.878Z,15.87
2019-01-25T14:15:14.824Z,15.63
2019-01-25T14:17:43.640Z,17.10
2019-01-25T14:20:22.947Z,15.93
2019-01-25T14:22:46.813Z,16.03
2019-01-25T14:25:15.624Z,14.67
2019-01-25T14:27:44.588Z,14.33
2019-01-25T14:30:17.831Z,12.93
2019-01-25T14:32:46.648Z,15.87
2019-01-25T14:35:15.533Z,15.80
2019-01-25T14:37:44.350Z,17.67
2019-01-25T14:40:14.268Z,16.43
2019-01-25T14:42:43.148Z,18.80
2019-01-25T14:45:13.248Z,17.43
2019-01-25T14:47:42.180Z,17.57
2019-01-25T14:50:15.317Z,17.70
2019-01-25T14:52:44.243Z,17.90
2019-01-25T14:55:13.208Z,15.07
2019-01-25T14:57:42.089Z,14.87
2019-01-25T15:00:11.097Z,15.30
2019-01-25T15:02:40.171Z,14.33
2019-01-25T15:05:14.735Z,14.80
2019-01-25T15:07:45.363Z,14.67
2019-01-25T15:10:15.152Z,12.23
2019-01-25T15:12:44.179Z,12.90
2019-01-25T15:15:13.756Z,11.43
2019-01-25T15:17:42.701Z,11.47
2019-01-25T15:20:14.173Z,12.80
2019-01-25T15:22:43.468Z,12.90
2019-01-25T15:25:12.293Z,11.37
2019-01-25T15:27:41.113Z,11.30
2019-01-25T15:30:11.553Z,13.77
2019-01-25T15:32:40.415Z,12.23
2019-01-25T15:35:10.487Z,11.73
2019-01-25T15:37:39.353Z,10.80
2019-01-25T15:40:09.799Z,10.90
2019-01-25T15:42:38.727Z,12.20
2019-01-25T15:45:11.338Z,12.00
2019-01-25T15:47:40.131Z,12.00
2019-01-25T15:50:10.629Z,12.77
2019-01-25T15:52:39.436Z,12.00
2019-01-25T15:55:08.816Z,11.23
2019-01-25T15:57:37.829Z,12.27
2019-01-25T16:00:11.250Z,12.20
2019-01-25T16:02:40.173Z,11.90
2019-01-25T16:05:09.990Z,12.50
2019-01-25T16:07:38.865Z,12.10
2019-01-25T16:10:09.484Z,11.80
2019-01-25T16:12:38.307Z,11.53
2019-01-25T16:15:09.053Z,10.97
2019-01-25T16:17:37.936Z,15.20
2019-01-25T16:20:08.519Z,15.50
2019-01-25T16:22:38.668Z,12.13
2019-01-25T16:25:09.236Z,10.93
2019-01-25T16:27:38.132Z,11.43
2019-01-25T16:30:11.510Z,12.80
2019-01-25T16:32:40.321Z,13.63
2019-01-25T16:35:09.724Z,12.80
2019-01-25T16:37:38.532Z,12.10
2019-01-25T16:40:08.955Z,10.93
2019-01-25T16:42:37.783Z,11.93
2019-01-25T16:45:08.331Z,10.77
2019-01-25T16:47:37.135Z,11.10
2019-01-25T16:50:06.728Z,10.37
2019-01-25T16:52:35.613Z,10.83
2019-01-25T16:55:07.122Z,11.03
2019-01-25T16:57:35.983Z,11.17
2019-01-25T17:00:06.597Z,10.60
2019-01-25T17:02:35.467Z,11.27
2019-01-25T17:05:06.172Z,11.43
2019-01-25T17:07:36.049Z,11.97
2019-01-25T17:10:07.577Z,10.73
2019-01-25T17:12:37.855Z,11.30
2019-01-25T17:15:13.682Z,10.83
2019-01-25T17:17:42.549Z,10.30
2019-01-25T17:20:21.055Z,9.97
2019-01-25T17:22:45.851Z,10.10
2019-01-25T17:25:14.859Z,10.80
2019-01-25T17:27:43.859Z,11.10
2019-01-25T17:30:20.021Z,10.00
2019-01-25T17:32:49.074Z,10.97
2019-01-25T17:35:18.076Z,10.63
2019-01-25T17:37:47.076Z,9.97
2019-01-25T17:40:18.426Z,10.67
2019-01-25T17:42:47.307Z,10.33
2019-01-25T17:45:16.104Z,11.53
2019-01-25T17:47:45.014Z,10.30
2019-01-25T17:50:14.453Z,10.50
2019-01-25T17:52:44.320Z,10.70
2019-01-25T17:55:17.621Z,10.70
2019-01-25T17:57:46.444Z,10.43
2019-01-25T18:00:16.819Z,11.17
2019-01-25T18:02:45.925Z,12.00
2019-01-25T18:05:14.808Z,11.60
2019-01-25T18:07:44.304Z,11.97
2019-01-25T18:10:14.793Z,11.67
2019-01-25T18:12:43.595Z,11.60
2019-01-25T18:15:13.845Z,11.50
2019-01-25T18:17:42.659Z,12.07
2019-01-25T18:20:13.104Z,11.57
2019-01-25T18:22:42.042Z,12.57
2019-01-25T18:25:12.480Z,14.97
2019-01-25T18:27:43.201Z,18.07
2019-01-25T18:30:13.722Z,13.83
2019-01-25T18:32:42.527Z,12.03
2019-01-25T18:35:11.334Z,12.67
2019-01-25T18:37:40.149Z,11.97
2019-01-25T18:40:10.853Z,12.40
2019-01-25T18:42:39.736Z,17.50
2019-01-25T18:45:09.011Z,17.70
2019-01-25T18:47:38.022Z,11.80
2019-01-25T18:50:11.503Z,13.10
2019-01-25T18:52:40.418Z,29.43
2019-01-25T18:55:11.035Z,14.97
2019-01-25T18:57:39.941Z,17.43
2019-01-25T19:00:10.380Z,14.60
2019-01-25T19:02:39.352Z,13.20
2019-01-25T19:05:08.960Z,19.93
2019-01-25T19:07:37.756Z,14.10
2019-01-25T19:10:11.149Z,15.67
2019-01-25T19:12:39.966Z,15.90
2019-01-25T19:15:11.909Z,16.73
2019-01-25T19:17:40.708Z,13.67
2019-01-25T19:20:10.999Z,13.73
2019-01-25T19:22:39.839Z,13.83
2019-01-25T19:25:09.488Z,12.67
2019-01-25T19:27:38.305Z,13.10
2019-01-25T19:30:08.796Z,13.87
2019-01-25T19:32:37.787Z,14.10
2019-01-25T19:35:08.243Z,14.57
2019-01-25T19:37:37.143Z,14.73
2019-01-25T19:40:07.588Z,14.77
2019-01-25T19:42:36.410Z,12.67
2019-01-25T19:45:11.854Z,12.37
2019-01-25T19:47:37.789Z,13.30
2019-01-25T19:50:08.373Z,13.00
2019-01-25T19:52:37.202Z,13.17
2019-01-25T19:55:07.629Z,13.20
2019-01-25T19:57:36.514Z,14.17
2019-01-25T20:00:09.892Z,14.23
2019-01-25T20:02:38.977Z,13.07
2019-01-25T20:05:09.500Z,15.80
2019-01-25T20:07:38.331Z,13.63
2019-01-25T20:10:08.859Z,13.40
2019-01-25T20:12:37.952Z,14.23
2019-01-25T20:15:19.345Z,14.27
2019-01-25T20:17:46.246Z,15.47
2019-01-25T20:20:17.679Z,14.43
2019-01-25T20:22:46.684Z,16.23
2019-01-25T20:25:15.573Z,15.53
2019-01-25T20:27:44.506Z,17.03
2019-01-25T20:30:15.051Z,16.50
2019-01-25T20:32:44.034Z,16.80
2019-01-25T20:35:14.834Z,15.83
2019-01-25T20:37:43.720Z,16.43
2019-01-25T20:40:16.121Z,16.37
2019-01-25T20:42:45.437Z,16.43
2019-01-25T20:45:26.999Z,16.17
2019-01-25T20:47:52.372Z,15.97
2019-01-25T20:50:22.459Z,14.70
2019-01-25T20:52:51.263Z,14.87
2019-01-25T20:55:20.104Z,15.90
2019-01-25T20:57:48.923Z,15.53
2019-01-25T21:00:19.353Z,17.87
2019-01-25T21:02:48.219Z,15.93
2019-01-25T21:05:17.165Z,16.73
2019-01-25T21:07:47.253Z,16.90
2019-01-25T21:10:17.267Z,16.97
2019-01-25T21:12:46.096Z,16.43
2019-01-25T21:15:16.275Z,16.93
2019-01-25T21:17:45.114Z,16.73
2019-01-25T21:20:21.270Z,17.43
2019-01-25T21:22:50.101Z,16.87
2019-01-25T21:25:18.951Z,17.27
2019-01-25T21:27:47.828Z,18.37
2019-01-25T21:30:23.874Z,18.43
2019-01-25T21:32:52.680Z,19.70
2019-01-25T21:35:21.487Z,18.07
2019-01-25T21:37:50.442Z,16.87
2019-01-25T21:40:23.323Z,18.17
2019-01-25T21:42:52.398Z,18.13
2019-01-25T21:45:22.080Z,18.17
2019-01-25T21:47:50.966Z,18.03
2019-01-25T21:50:21.463Z,18.47
2019-01-25T21:52:50.281Z,18.47
2019-01-25T21:55:19.103Z,19.03
2019-01-25T21:57:47.946Z,19.27
2019-01-25T22:00:17.844Z,18.30
2019-01-25T22:02:46.712Z,17.97
2019-01-25T22:05:15.826Z,17.97
2019-01-25T22:07:44.637Z,18.17
2019-01-25T22:10:14.917Z,18.23
2019-01-25T22:12:43.780Z,19.23
2019-01-25T22:15:14.721Z,19.20
2019-01-25T22:17:43.537Z,19.43
2019-01-25T22:20:13.956Z,19.30
2019-01-25T22:22:42.768Z,18.57
2019-01-25T22:25:12.147Z,18.03
2019-01-25T22:27:41.040Z,17.23
2019-01-25T22:30:11.481Z,17.93
2019-01-25T22:32:40.285Z,18.57
2019-01-25T22:35:09.100Z,19.57
2019-01-25T22:37:38.063Z,18.77
2019-01-25T22:40:08.584Z,18.87
2019-01-25T22:42:37.389Z,18.90
2019-01-25T22:45:07.863Z,19.83
2019-01-25T22:47:36.674Z,20.03
2019-01-25T22:50:07.172Z,18.60
2019-01-25T22:52:36.029Z,19.03
2019-01-25T22:55:06.476Z,18.27
2019-01-25T22:57:35.272Z,18.17
2019-01-25T23:00:05.728Z,17.57
2019-01-25T23:02:36.679Z,18.53
2019-01-25T23:05:07.165Z,19.30
2019-01-25T23:07:35.966Z,18.67
2019-01-25T23:10:06.468Z,16.77
2019-01-25T23:12:35.883Z,17.63
2019-01-25T23:15:06.466Z,17.17
2019-01-25T23:17:35.271Z,18.30
2019-01-25T23:20:05.984Z,17.93
2019-01-25T23:22:34.807Z,18.23
2019-01-25T23:25:04.600Z,17.83
2019-01-25T23:27:33.528Z,18.40
2019-01-25T23:30:02.410Z,17.33
2019-01-25T23:32:33.102Z,17.17
2019-01-25T23:35:01.935Z,18.20
2019-01-25T23:37:30.784Z,17.43
2019-01-25T23:39:59.579Z,17.10
2019-01-25T23:42:28.415Z,19.13
2019-01-25T23:44:57.254Z,17.53
2019-01-25T23:47:26.064Z,17.03
2019-01-25T23:49:54.877Z,17.63
2019-01-25T23:52:23.712Z,17.37
2019-01-25T23:54:52.520Z,18.50
2019-01-25T23:57:21.404Z,17.53
2019-01-25T23:59:50.230Z,18.67
